Create Tblcommutelog Verified Points Advance Search
| # | Trip ID | Id Commuter | Trip Date | Trip Num | Current Lat | Current Lng | Delta Distance | Current Time | Activity | Activity Confidence | Current Speed | |
|---|---|---|---|---|---|---|---|---|---|---|---|---|
| 72681 | 251211_783315_16651048_1715 | 783315 | (not set) | (not set) | 38.7597254 | -77.2160867 | 3.3376 | 2025-12-11 17:39:54 | in_vehicle | 100 | 9.4951138608993 | |
| 72682 | 251211_783315_16651048_1715 | 783315 | (not set) | (not set) | 38.7584583 | -77.2218498 | 3.667 | 2025-12-11 17:40:22 | in_vehicle | 100 | 9.2760646239953 | |
| 72683 | 251211_783315_16651048_1715 | 783315 | (not set) | (not set) | 38.7597254 | -77.2160867 | 3.3376 | 2025-12-11 17:39:54 | in_vehicle | 100 | 9.4951138608993 | |
| 72684 | 251211_789453_16658316_1740 | 789453 | (not set) | (not set) | 39.006860091328 | -76.898845974257 | 16.2635 | 2025-12-11 18:14:08 | in_vehicle | 100 | 4.296047278872 | |
| 72685 | 251211_789453_16658316_1740 | 789453 | (not set) | (not set) | 39.006860091328 | -76.898845974257 | 16.2635 | 2025-12-11 18:14:08 | in_vehicle | 100 | 4.296047278872 | |
| 72686 | 251211_783315_16651048_1715 | 783315 | (not set) | (not set) | 38.7574984 | -77.227513 | 3.9849 | 2025-12-11 17:40:48 | in_vehicle | 100 | 7.9125948840827 | |
| 72687 | 251211_783315_16651048_1715 | 783315 | (not set) | (not set) | 38.7572133 | -77.2304021 | 4.1421 | 2025-12-11 17:41:04 | in_vehicle | 100 | 7.2152136400619 | |
| 72688 | 251211_783315_16651048_1715 | 783315 | (not set) | (not set) | 38.7583789 | -77.2247603 | 3.8242 | 2025-12-11 17:40:35 | in_vehicle | 100 | 8.9452555723444 | |
| 72689 | 251211_783315_16651048_1715 | 783315 | (not set) | (not set) | 38.7574984 | -77.227513 | 3.9849 | 2025-12-11 17:40:48 | in_vehicle | 100 | 7.9125948840827 | |
| 72690 | 251211_783315_16651048_1715 | 783315 | (not set) | (not set) | 38.7583789 | -77.2247603 | 3.8242 | 2025-12-11 17:40:35 | in_vehicle | 100 | 8.9452555723444 | |
| 72691 | 251211_783315_16651048_1715 | 783315 | (not set) | (not set) | 38.7572133 | -77.2304021 | 4.1421 | 2025-12-11 17:41:04 | in_vehicle | 100 | 7.2152136400619 | |
| 72692 | 251211_784637_16652610_1802 | 784637 | (not set) | (not set) | 38.916989460097 | -77.043899814266 | 1.354 | 2025-12-11 18:14:09 | on_bicycle | 100 | 1.4171144509911 | |
| 72693 | 251211_783315_16651048_1715 | 783315 | (not set) | (not set) | 38.7574397 | -77.2328222 | 4.2738 | 2025-12-11 17:41:16 | in_vehicle | 100 | 8.703854372491 | |
| 72694 | 251211_783315_16651048_1715 | 783315 | (not set) | (not set) | 38.7565317 | -77.2356386 | 4.4383 | 2025-12-11 17:41:29 | in_vehicle | 100 | 9.1106600981698 | |
| 72695 | 251211_783315_16651048_1715 | 783315 | (not set) | (not set) | 38.7549651 | -77.2379887 | 4.605 | 2025-12-11 17:41:42 | in_vehicle | 100 | 9.3431205128434 | |
| 72696 | 251211_783315_16651048_1715 | 783315 | (not set) | (not set) | 38.7549651 | -77.2379887 | 4.605 | 2025-12-11 17:41:42 | in_vehicle | 100 | 9.3431205128434 | |
| 72697 | 251211_783315_16651048_1715 | 783315 | (not set) | (not set) | 38.7574397 | -77.2328222 | 4.2738 | 2025-12-11 17:41:16 | in_vehicle | 100 | 8.703854372491 | |
| 72698 | 251211_783315_16651048_1715 | 783315 | (not set) | (not set) | 38.7565317 | -77.2356386 | 4.4383 | 2025-12-11 17:41:29 | in_vehicle | 100 | 9.1106600981698 | |
| 72699 | 251211_783315_16651048_1715 | 783315 | (not set) | (not set) | 38.7514709 | -77.2420807 | 4.9323 | 2025-12-11 17:42:06 | in_vehicle | 100 | 9.3475909054333 | |
| 72700 | 251211_783315_16651048_1715 | 783315 | (not set) | (not set) | 38.7531783 | -77.2398932 | 4.7655 | 2025-12-11 17:41:54 | in_vehicle | 100 | 9.8795676236287 |